Time;durP1;ratioP1;P1;durP2;ratioP2;P2;SDS_P1;SDS_P2;PMS_P1;PMS_P2;Temp;Humidity;BMP_temperature;BMP_pressure;BME280_temperature;BME280_humidity;BME280_pressure;Samples;Min_cycle;Max_cycle;Signal;HPM_P1;HPM_P2
2022/08/07 00:00:53;;;;;;;11.00;4.93;;;;;;;;;;5099738;28;20036;-77
2022/08/07 00:03:19;;;;;;;15.38;5.35;;;;;;;;;;5101349;28;20146;-77
2022/08/07 00:05:45;;;;;;;6.32;4.65;;;;;;;;;;5101227;28;20020;-77
2022/08/07 00:08:12;;;;;;;9.15;4.55;;;;;;;;;;5101313;28;20020;-77
2022/08/07 00:10:38;;;;;;;9.32;4.28;;;;;;;;;;5101141;28;20024;-77
2022/08/07 00:13:04;;;;;;;14.88;4.57;;;;;;;;;;5101074;28;20093;-77
2022/08/07 00:15:31;;;;;;;8.57;4.55;;;;;;;;;;5100842;28;20359;-77
2022/08/07 00:17:57;;;;;;;15.43;4.78;;;;;;;;;;5100900;28;20078;-76
2022/08/07 00:20:23;;;;;;;15.25;4.75;;;;;;;;;;5101015;28;20028;-76
2022/08/07 00:22:49;;;;;;;9.88;4.18;;;;;;;;;;5100768;28;20417;-77
2022/08/07 00:25:16;;;;;;;4.43;3.80;;;;;;;;;;5100740;28;20024;-77
2022/08/07 00:27:42;;;;;;;6.18;4.03;;;;;;;;;;5100798;28;20317;-77
2022/08/07 00:30:08;;;;;;;5.90;3.90;;;;;;;;;;5100667;28;20452;-77
2022/08/07 00:32:34;;;;;;;5.43;3.55;;;;;;;;;;5099246;28;20101;-77
2022/08/07 00:35:00;;;;;;;4.60;4.03;;;;;;;;;;5100665;28;20081;-76
2022/08/07 00:37:26;;;;;;;6.63;4.68;;;;;;;;;;5100447;28;20358;-76
2022/08/07 00:39:55;;;;;;;6.72;4.40;;;;;;;;;;5099653;28;20044;-77
2022/08/07 00:42:22;;;;;;;13.85;5.20;;;;;;;;;;5100391;28;20035;-76
2022/08/07 00:44:48;;;;;;;8.15;4.63;;;;;;;;;;5100501;28;20043;-77
2022/08/07 00:47:14;;;;;;;6.93;4.55;;;;;;;;;;5098413;28;20031;-76
2022/08/07 00:49:40;;;;;;;6.25;4.93;;;;;;;;;;5100222;28;20494;-77
2022/08/07 00:52:07;;;;;;;5.88;4.45;;;;;;;;;;5100021;28;20053;-77
2022/08/07 00:54:33;;;;;;;9.20;5.25;;;;;;;;;;5100398;28;20128;-77
2022/08/07 00:56:59;;;;;;;7.15;4.22;;;;;;;;;;5100204;28;20035;-77
2022/08/07 00:59:25;;;;;;;8.00;4.80;;;;;;;;;;5100118;28;20059;-77
2022/08/07 01:01:51;;;;;;;6.20;4.95;;;;;;;;;;5100002;28;20040;-77
2022/08/07 01:04:18;;;;;;;10.90;4.18;;;;;;;;;;5099584;28;20066;-77
2022/08/07 01:06:46;;;;;;;7.35;4.38;;;;;;;;;;5100041;28;20016;-77
2022/08/07 01:09:12;;;;;;;9.40;4.70;;;;;;;;;;5100074;28;20020;-77
2022/08/07 01:11:39;;;;;;;5.78;4.28;;;;;;;;;;5097865;28;20116;-77
2022/08/07 01:14:06;;;;;;;6.47;4.20;;;;;;;;;;5098842;28;20024;-77
2022/08/07 01:16:33;;;;;;;4.85;3.75;;;;;;;;;;5099711;28;20035;-77
2022/08/07 01:18:59;;;;;;;8.45;4.03;;;;;;;;;;5099903;28;20035;-77
2022/08/07 01:21:25;;;;;;;13.25;4.88;;;;;;;;;;5098571;28;20024;-77
2022/08/07 01:23:53;;;;;;;9.73;4.70;;;;;;;;;;5099798;28;20028;-77
2022/08/07 01:26:20;;;;;;;9.43;4.28;;;;;;;;;;5099507;28;20024;-77
2022/08/07 01:28:50;;;;;;;7.85;4.45;;;;;;;;;;5098030;28;20039;-77
2022/08/07 01:31:17;;;;;;;8.75;4.30;;;;;;;;;;5099350;28;20028;-77
2022/08/07 01:33:43;;;;;;;4.70;3.80;;;;;;;;;;5099510;28;20024;-77
2022/08/07 01:36:10;;;;;;;7.93;3.70;;;;;;;;;;5099483;28;20050;-77
2022/08/07 01:38:37;;;;;;;7.15;3.88;;;;;;;;;;5099396;28;20066;-77
2022/08/07 01:41:04;;;;;;;8.23;4.22;;;;;;;;;;5099193;28;20074;-77
2022/08/07 01:43:30;;;;;;;8.68;3.90;;;;;;;;;;5099180;28;20028;-77
2022/08/07 01:45:57;;;;;;;11.75;3.80;;;;;;;;;;5098114;28;20116;-77
2022/08/07 01:48:23;;;;;;;5.32;3.72;;;;;;;;;;5098026;28;20066;-77
2022/08/07 01:50:52;;;;;;;5.50;3.72;;;;;;;;;;5099248;28;20019;-77
2022/08/07 01:53:21;;;;;;;6.75;4.03;;;;;;;;;;5099055;28;20055;-77
2022/08/07 01:55:48;;;;;;;6.07;4.05;;;;;;;;;;5099109;28;20032;-77
2022/08/07 01:58:16;;;;;;;5.30;3.90;;;;;;;;;;5098868;28;20321;-77
2022/08/07 02:00:43;;;;;;;8.07;4.30;;;;;;;;;;5098876;28;20066;-77
2022/08/07 02:03:11;;;;;;;13.70;4.20;;;;;;;;;;5098815;28;20027;-77
2022/08/07 02:05:40;;;;;;;7.13;3.78;;;;;;;;;;5097783;28;20016;-77
2022/08/07 02:08:08;;;;;;;7.07;4.10;;;;;;;;;;5099010;28;20103;-77
2022/08/07 02:10:35;;;;;;;10.93;3.72;;;;;;;;;;5098930;28;20020;-77
2022/08/07 02:13:02;;;;;;;6.65;3.50;;;;;;;;;;5098722;28;20024;-77
2022/08/07 02:15:29;;;;;;;5.32;3.70;;;;;;;;;;5098544;28;20024;-78
2022/08/07 02:17:56;;;;;;;6.57;3.58;;;;;;;;;;5098425;28;20107;-77
2022/08/07 02:20:23;;;;;;;4.43;3.60;;;;;;;;;;5098553;28;20030;-77
2022/08/07 02:22:50;;;;;;;7.65;3.53;;;;;;;;;;5097388;28;20036;-77
2022/08/07 02:25:17;;;;;;;7.07;3.53;;;;;;;;;;5098352;28;20309;-77
2022/08/07 02:27:44;;;;;;;8.48;4.38;;;;;;;;;;5098317;28;20024;-77
2022/08/07 02:30:11;;;;;;;6.63;3.72;;;;;;;;;;5098298;28;20065;-77
2022/08/07 02:32:37;;;;;;;8.45;3.90;;;;;;;;;;5098399;28;20348;-77
2022/08/07 02:35:05;;;;;;;8.10;3.70;;;;;;;;;;5098254;28;20024;-77
2022/08/07 02:37:32;;;;;;;7.22;3.92;;;;;;;;;;5098116;28;20413;-77
2022/08/07 02:39:58;;;;;;;9.00;3.63;;;;;;;;;;5098264;28;20024;-77
2022/08/07 02:42:24;;;;;;;6.85;3.67;;;;;;;;;;5098073;28;20020;-77
2022/08/07 02:44:52;;;;;;;7.78;3.83;;;;;;;;;;5097929;28;20024;-77
2022/08/07 02:47:18;;;;;;;9.75;3.78;;;;;;;;;;5097028;28;20016;-77
2022/08/07 02:49:45;;;;;;;7.20;3.45;;;;;;;;;;5097859;28;20020;-77
2022/08/07 02:52:13;;;;;;;5.18;3.90;;;;;;;;;;5097872;28;20040;-77
2022/08/07 02:54:41;;;;;;;5.57;4.22;;;;;;;;;;5097999;28;20024;-77
2022/08/07 02:57:08;;;;;;;7.90;3.85;;;;;;;;;;5097834;28;20028;-77
2022/08/07 02:59:35;;;;;;;5.60;3.38;;;;;;;;;;5096610;28;20036;-77
2022/08/07 03:02:02;;;;;;;5.05;3.47;;;;;;;;;;5097779;28;20107;-77
2022/08/07 03:04:28;;;;;;;6.63;3.05;;;;;;;;;;5097761;28;20031;-77
2022/08/07 03:06:54;;;;;;;11.10;3.60;;;;;;;;;;5097778;28;20020;-77
2022/08/07 03:09:21;;;;;;;7.60;3.38;;;;;;;;;;5097559;28;20035;-77
2022/08/07 03:11:48;;;;;;;7.45;3.60;;;;;;;;;;5096420;28;20024;-77
2022/08/07 03:14:14;;;;;;;4.72;3.63;;;;;;;;;;5096457;28;20028;-77
2022/08/07 03:16:41;;;;;;;9.75;4.30;;;;;;;;;;5096037;28;20366;-77
2022/08/07 03:19:08;;;;;;;4.35;3.00;;;;;;;;;;5097678;28;20102;-77
2022/08/07 03:21:34;;;;;;;7.22;3.65;;;;;;;;;;5097657;28;20036;-77
2022/08/07 03:24:01;;;;;;;9.73;3.83;;;;;;;;;;5097157;28;20034;-77
2022/08/07 03:26:31;;;;;;;8.23;3.50;;;;;;;;;;5097391;28;20055;-77
2022/08/07 03:28:58;;;;;;;6.88;3.90;;;;;;;;;;5097197;28;20432;-77
2022/08/07 03:31:25;;;;;;;8.07;4.10;;;;;;;;;;5097068;28;20024;-77
2022/08/07 03:33:59;;;;;;;4.57;3.63;;;;;;;;;;5096948;28;20436;-77
2022/08/07 03:36:26;;;;;;;5.72;3.42;;;;;;;;;;5095832;28;20418;-77
2022/08/07 03:38:54;;;;;;;4.70;3.67;;;;;;;;;;5097140;28;20032;-81
2022/08/07 03:41:20;;;;;;;6.65;4.10;;;;;;;;;;5095388;28;20040;-77
2022/08/07 03:43:46;;;;;;;9.73;3.70;;;;;;;;;;5097352;28;20061;-77
2022/08/07 03:46:12;;;;;;;5.28;3.78;;;;;;;;;;5097107;28;20028;-77
2022/08/07 03:48:39;;;;;;;7.22;4.03;;;;;;;;;;5097276;28;20024;-77
2022/08/07 03:51:08;;;;;;;10.77;3.50;;;;;;;;;;5097117;28;20089;-77
2022/08/07 03:53:34;;;;;;;8.70;3.17;;;;;;;;;;5096827;28;20052;-77
2022/08/07 03:56:02;;;;;;;4.28;3.33;;;;;;;;;;5097045;28;20055;-77
2022/08/07 03:58:28;;;;;;;5.10;3.15;;;;;;;;;;5096981;28;20024;-77
2022/08/07 04:00:58;;;;;;;6.32;3.00;;;;;;;;;;5096850;28;20417;-77
2022/08/07 04:03:24;;;;;;;4.88;3.15;;;;;;;;;;5096877;28;20044;-77
2022/08/07 04:05:52;;;;;;;13.98;3.38;;;;;;;;;;5097129;28;20032;-77
2022/08/07 04:08:19;;;;;;;5.15;2.53;;;;;;;;;;5097018;28;20037;-79
2022/08/07 04:10:47;;;;;;;7.88;3.03;;;;;;;;;;5096875;28;20020;-77
2022/08/07 04:13:13;;;;;;;9.48;3.28;;;;;;;;;;5097123;28;20099;-77
2022/08/07 04:15:40;;;;;;;6.40;3.30;;;;;;;;;;5095987;28;20032;-77
2022/08/07 04:18:06;;;;;;;5.03;2.90;;;;;;;;;;5097167;28;20040;-77
2022/08/07 04:20:33;;;;;;;8.10;3.25;;;;;;;;;;5096829;28;20055;-77
2022/08/07 04:22:59;;;;;;;7.13;2.85;;;;;;;;;;5095180;28;20032;-77
2022/08/07 04:25:25;;;;;;;5.25;2.95;;;;;;;;;;5096731;28;20066;-77
2022/08/07 04:27:51;;;;;;;4.75;3.80;;;;;;;;;;5096959;28;20020;-77
2022/08/07 04:30:17;;;;;;;6.35;3.80;;;;;;;;;;5096787;28;20123;-77
2022/08/07 04:32:45;;;;;;;7.85;3.58;;;;;;;;;;5095411;28;20329;-77
2022/08/07 04:35:12;;;;;;;5.45;4.03;;;;;;;;;;5096786;28;20099;-77
2022/08/07 04:37:38;;;;;;;5.53;3.10;;;;;;;;;;5096688;28;20065;-77
2022/08/07 04:40:04;;;;;;;7.63;3.33;;;;;;;;;;5096626;28;20134;-77
2022/08/07 04:42:33;;;;;;;8.77;3.03;;;;;;;;;;5095611;28;20028;-77
2022/08/07 04:45:00;;;;;;;8.23;2.80;;;;;;;;;;5095140;28;20035;-77
2022/08/07 04:47:34;;;;;;;5.35;3.20;;;;;;;;;;5100309;28;20024;-76
2022/08/07 04:50:19;;;;;;;9.23;3.20;;;;;;;;;;5099831;28;20052;-77
2022/08/07 04:53:03;;;;;;;8.27;3.28;;;;;;;;;;5100088;28;20426;-77
2022/08/07 04:55:44;;;;;;;5.00;2.58;;;;;;;;;;5117737;27;20042;-77
2022/08/07 04:58:17;;;;;;;3.72;2.35;;;;;;;;;;5129173;27;20138;-77
2022/08/07 05:01:13;;;;;;;6.05;2.70;;;;;;;;;;5129910;27;20051;-77
2022/08/07 05:03:43;;;;;;;5.13;2.50;;;;;;;;;;5128683;27;20024;-77
2022/08/07 05:06:12;;;;;;;3.90;2.42;;;;;;;;;;5127603;27;20020;-77
2022/08/07 05:08:47;;;;;;;3.80;2.80;;;;;;;;;;5126511;27;20023;-76
2022/08/07 05:11:14;;;;;;;5.05;2.70;;;;;;;;;;5126683;27;20015;-76
2022/08/07 05:13:47;;;;;;;6.57;2.33;;;;;;;;;;5127205;27;20038;-76
2022/08/07 05:16:14;;;;;;;5.90;2.55;;;;;;;;;;5134679;27;20354;-76
2022/08/07 05:18:43;;;;;;;5.20;2.83;;;;;;;;;;5125894;27;20329;-76
2022/08/07 05:21:11;;;;;;;7.60;2.53;;;;;;;;;;5118871;28;20448;-77
2022/08/07 05:23:56;;;;;;;7.20;3.15;;;;;;;;;;5120046;28;20032;-77
2022/08/07 05:26:23;;;;;;;8.98;2.63;;;;;;;;;;5119910;28;20024;-77
2022/08/07 05:28:51;;;;;;;11.90;2.40;;;;;;;;;;5119822;28;20405;-77
2022/08/07 05:31:19;;;;;;;8.30;2.55;;;;;;;;;;5120047;28;20024;-77
2022/08/07 05:33:48;;;;;;;4.30;2.20;;;;;;;;;;5120046;28;20058;-77
2022/08/07 05:36:15;;;;;;;4.97;2.53;;;;;;;;;;5119986;28;20138;-77
2022/08/07 05:38:42;;;;;;;10.20;3.20;;;;;;;;;;5119804;28;20030;-77
2022/08/07 05:41:09;;;;;;;4.35;2.80;;;;;;;;;;5119356;28;20028;-77
2022/08/07 05:43:35;;;;;;;4.85;2.75;;;;;;;;;;5119521;28;20028;-77
2022/08/07 05:46:01;;;;;;;4.13;2.70;;;;;;;;;;5119920;28;20024;-77
2022/08/07 05:48:31;;;;;;;5.07;2.90;;;;;;;;;;5119495;28;20027;-77
2022/08/07 05:50:59;;;;;;;2.83;2.55;;;;;;;;;;5119431;28;20019;-77
2022/08/07 05:53:25;;;;;;;5.68;2.78;;;;;;;;;;5119409;28;20078;-77
2022/08/07 05:55:52;;;;;;;5.88;2.65;;;;;;;;;;5118442;28;20051;-77
2022/08/07 05:58:19;;;;;;;5.38;2.72;;;;;;;;;;5119146;28;20412;-77
2022/08/07 06:00:46;;;;;;;4.85;2.70;;;;;;;;;;5119351;28;20038;-77
2022/08/07 06:03:16;;;;;;;5.72;2.90;;;;;;;;;;5118303;28;20425;-77
2022/08/07 06:05:42;;;;;;;6.80;2.75;;;;;;;;;;5119313;28;20044;-77
2022/08/07 06:08:09;;;;;;;5.32;2.40;;;;;;;;;;5119302;28;20039;-77
2022/08/07 06:10:36;;;;;;;5.75;3.13;;;;;;;;;;5117680;28;20051;-77
2022/08/07 06:13:02;;;;;;;4.65;2.70;;;;;;;;;;5119318;28;20085;-76
2022/08/07 06:15:29;;;;;;;3.85;3.05;;;;;;;;;;5119471;28;20095;-77
2022/08/07 06:17:55;;;;;;;3.45;2.75;;;;;;;;;;5119203;28;20322;-77
2022/08/07 06:20:25;;;;;;;10.32;2.83;;;;;;;;;;5118901;28;20028;-77
2022/08/07 06:22:51;;;;;;;10.95;2.97;;;;;;;;;;5119201;28;20067;-77
2022/08/07 06:25:18;;;;;;;6.75;2.97;;;;;;;;;;5118799;28;20028;-77
2022/08/07 06:27:44;;;;;;;4.25;2.97;;;;;;;;;;5118788;28;20019;-77
2022/08/07 06:30:10;;;;;;;6.13;3.05;;;;;;;;;;5118916;28;20016;-77
2022/08/07 06:32:36;;;;;;;5.72;2.85;;;;;;;;;;5118454;28;20062;-77
2022/08/07 06:35:03;;;;;;;7.13;3.03;;;;;;;;;;5118784;28;20145;-76
2022/08/07 06:37:29;;;;;;;3.83;3.00;;;;;;;;;;5118758;28;20024;-76
2022/08/07 06:39:55;;;;;;;6.30;3.25;;;;;;;;;;5118686;28;20043;-76
2022/08/07 06:42:26;;;;;;;4.07;3.00;;;;;;;;;;5118740;28;20023;-77
2022/08/07 06:44:52;;;;;;;;;;;;;;;;;;5118958;28;20024;-77
2022/08/07 06:47:19;;;;;;;5.25;2.80;;;;;;;;;;5118423;28;19904;-76
2022/08/07 06:49:47;;;;;;;4.80;3.03;;;;;;;;;;5117380;28;20030;-77
2022/08/07 06:52:17;;;;;;;7.10;3.33;;;;;;;;;;5117929;28;20075;-76
2022/08/07 06:54:46;;;;;;;7.70;2.90;;;;;;;;;;5118261;28;20032;-76
2022/08/07 06:57:12;;;;;;;6.18;3.45;;;;;;;;;;5118433;28;20143;-77
2022/08/07 06:59:42;;;;;;;4.57;3.00;;;;;;;;;;5118324;28;20032;-77
2022/08/07 07:02:12;;;;;;;8.07;2.80;;;;;;;;;;5117964;28;20111;-77
2022/08/07 07:04:38;;;;;;;9.05;3.70;;;;;;;;;;5117991;28;20458;-77
2022/08/07 07:07:06;;;;;;;8.60;3.30;;;;;;;;;;5117876;28;20020;-77
2022/08/07 07:09:32;;;;;;;8.38;3.45;;;;;;;;;;5117795;28;20080;-77
2022/08/07 07:11:58;;;;;;;8.82;3.25;;;;;;;;;;5118354;28;20051;-77
2022/08/07 07:14:27;;;;;;;6.25;3.22;;;;;;;;;;5118080;28;20031;-77
2022/08/07 07:16:57;;;;;;;6.07;3.90;;;;;;;;;;5118027;28;20020;-77
2022/08/07 07:19:28;;;;;;;7.53;3.58;;;;;;;;;;5117998;28;20055;-77
2022/08/07 07:21:54;;;;;;;6.15;3.30;;;;;;;;;;5117831;28;20424;-77
2022/08/07 07:24:21;;;;;;;7.35;3.28;;;;;;;;;;5117710;28;20437;-77
2022/08/07 07:26:47;;;;;;;5.40;3.38;;;;;;;;;;5117976;28;20020;-77
2022/08/07 07:29:14;;;;;;;4.65;3.30;;;;;;;;;;5117898;28;20028;-77
2022/08/07 07:31:42;;;;;;;7.20;3.63;;;;;;;;;;5117749;28;20035;-77
2022/08/07 07:34:10;;;;;;;5.70;3.50;;;;;;;;;;5117875;28;20019;-77
2022/08/07 07:36:40;;;;;;;7.15;3.70;;;;;;;;;;5117634;28;20020;-77
2022/08/07 07:39:07;;;;;;;6.20;3.38;;;;;;;;;;5117676;28;20046;-77
2022/08/07 07:41:34;;;;;;;7.57;3.55;;;;;;;;;;5116141;28;20413;-77
2022/08/07 07:44:01;;;;;;;5.60;3.92;;;;;;;;;;5117404;28;20401;-77
2022/08/07 07:46:30;;;;;;;4.32;3.92;;;;;;;;;;5116116;28;20118;-77
2022/08/07 07:48:56;;;;;;;8.55;4.47;;;;;;;;;;5117409;28;20398;-77
2022/08/07 07:51:23;;;;;;;7.60;3.70;;;;;;;;;;5117142;28;20032;-76
2022/08/07 07:53:50;;;;;;;3.78;3.38;;;;;;;;;;5117174;28;20052;-77
2022/08/07 07:56:16;;;;;;;6.20;3.80;;;;;;;;;;5117686;28;20050;-77
2022/08/07 07:58:43;;;;;;;8.48;3.85;;;;;;;;;;5116275;28;20030;-77
2022/08/07 08:01:10;;;;;;;6.07;3.72;;;;;;;;;;5117414;28;20370;-77
2022/08/07 08:03:37;;;;;;;5.05;4.15;;;;;;;;;;5117430;28;20023;-77
2022/08/07 08:06:04;;;;;;;8.13;4.60;;;;;;;;;;5117310;28;20016;-77
2022/08/07 08:08:31;;;;;;;14.20;11.98;;;;;;;;;;5116944;28;20401;-77
2022/08/07 08:10:59;;;;;;;15.93;12.48;;;;;;;;;;5117272;28;20029;-77
2022/08/07 08:13:26;;;;;;;6.13;4.72;;;;;;;;;;5117270;28;20043;-77
2022/08/07 08:15:52;;;;;;;6.00;4.25;;;;;;;;;;5117731;28;20023;-77
2022/08/07 08:18:19;;;;;;;8.32;4.30;;;;;;;;;;5116199;28;20030;-77
2022/08/07 08:20:46;;;;;;;10.20;3.95;;;;;;;;;;5119800;28;20030;-76
2022/08/07 08:28:45;;;;;;;12.77;6.22;;;;;;;;;;5121496;28;20474;-77
2022/08/07 08:31:14;;;;;;;25.10;17.13;;;;;;;;;;5121064;28;20111;-77
2022/08/07 08:33:40;;;;;;;10.82;9.68;;;;;;;;;;5121191;28;20051;-77
2022/08/07 08:36:08;;;;;;;6.65;3.83;;;;;;;;;;5121274;28;20069;-76
2022/08/07 08:38:37;;;;;;;21.63;15.02;;;;;;;;;;5121017;28;20034;-76
2022/08/07 08:41:22;;;;;;;4.88;4.18;;;;;;;;;;5121061;28;20030;-76
2022/08/07 08:43:54;;;;;;;8.45;3.75;;;;;;;;;;5120791;28;20077;-76
2022/08/07 08:46:24;;;;;;;30.15;25.58;;;;;;;;;;5120848;28;20012;-76
2022/08/07 08:48:55;;;;;;;17.40;4.47;;;;;;;;;;5120890;28;20043;-76
2022/08/07 08:51:32;;;;;;;5.35;3.80;;;;;;;;;;5120774;28;20424;-76
2022/08/07 08:53:58;;;;;;;6.57;3.45;;;;;;;;;;5119565;28;20052;-75
2022/08/07 08:56:26;;;;;;;5.32;3.40;;;;;;;;;;5120686;28;20028;-76
2022/08/07 08:59:05;;;;;;;6.03;3.75;;;;;;;;;;5119551;28;20413;-76
2022/08/07 09:01:36;;;;;;;7.32;3.72;;;;;;;;;;5120385;28;20024;-75
2022/08/07 09:04:14;;;;;;;11.90;3.83;;;;;;;;;;5120449;28;20405;-76
2022/08/07 09:06:46;;;;;;;7.38;3.47;;;;;;;;;;5119183;28;20032;-76
2022/08/07 09:09:33;;;;;;;6.03;3.70;;;;;;;;;;5120395;28;20035;-76
2022/08/07 09:12:11;;;;;;;8.18;3.58;;;;;;;;;;5037923;28;20120;-76
2022/08/07 09:14:56;;;;;;;7.07;3.78;;;;;;;;;;5021243;28;20077;-76
2022/08/07 09:17:33;;;;;;;8.20;3.90;;;;;;;;;;5038045;28;20308;-76
2022/08/07 09:20:12;;;;;;;6.95;3.83;;;;;;;;;;5037811;28;20414;-76
2022/08/07 09:22:56;;;;;;;4.97;3.80;;;;;;;;;;5037600;28;20492;-76
2022/08/07 09:25:22;;;;;;;7.32;4.10;;;;;;;;;;5020649;28;20049;-77
2022/08/07 09:28:05;;;;;;;12.80;4.03;;;;;;;;;;5037424;28;20383;-76
2022/08/07 09:30:41;;;;;;;11.68;7.03;;;;;;;;;;5037373;28;20533;-76
2022/08/07 09:33:10;;;;;;;9.45;4.40;;;;;;;;;;5036863;28;20048;-76
2022/08/07 09:35:40;;;;;;;7.47;3.97;;;;;;;;;;5037421;28;20033;-76
2022/08/07 09:38:12;;;;;;;5.90;3.97;;;;;;;;;;5037508;28;20079;-76
2022/08/07 09:40:57;;;;;;;8.05;3.70;;;;;;;;;;5021142;28;20346;-76
2022/08/07 09:43:41;;;;;;;5.55;3.80;;;;;;;;;;5020609;28;20044;-76
2022/08/07 09:46:08;;;;;;;7.57;3.72;;;;;;;;;;5020730;28;20107;-76
2022/08/07 09:48:51;;;;;;;9.50;3.95;;;;;;;;;;5047372;28;20032;-76
2022/08/07 09:51:20;;;;;;;10.95;5.28;;;;;;;;;;5118429;28;20030;-75
2022/08/07 09:53:49;;;;;;;11.50;4.60;;;;;;;;;;5119406;28;20051;-76
2022/08/07 09:56:43;;;;;;;7.45;3.65;;;;;;;;;;5119518;28;20027;-75
2022/08/07 09:59:12;;;;;;;7.07;3.60;;;;;;;;;;5119479;28;20051;-75
2022/08/07 10:01:47;;;;;;;5.35;3.75;;;;;;;;;;5119433;28;20035;-75
2022/08/07 10:04:22;;;;;;;9.65;3.53;;;;;;;;;;5119274;28;20107;-76
2022/08/07 10:07:07;;;;;;;11.23;5.72;;;;;;;;;;5119521;28;20023;-76
2022/08/07 10:09:33;;;;;;;7.90;3.90;;;;;;;;;;5118159;28;20019;-75
2022/08/07 10:12:05;;;;;;;7.00;3.83;;;;;;;;;;5119166;28;20019;-75
2022/08/07 10:14:31;;;;;;;5.63;3.60;;;;;;;;;;5118983;28;20038;-75
2022/08/07 10:16:57;;;;;;;6.30;3.50;;;;;;;;;;5119320;28;20027;-75
2022/08/07 10:19:35;;;;;;;3.88;3.45;;;;;;;;;;5119242;28;20027;-75
2022/08/07 10:22:21;;;;;;;10.98;4.03;;;;;;;;;;5117958;28;20039;-75
2022/08/07 10:24:47;;;;;;;8.10;3.33;;;;;;;;;;5117948;28;20028;-75
2022/08/07 10:27:19;;;;;;;6.68;3.63;;;;;;;;;;5119021;28;20103;-75
2022/08/07 10:29:50;;;;;;;5.80;3.95;;;;;;;;;;5118717;28;20024;-76
2022/08/07 10:32:43;;;;;;;10.00;3.53;;;;;;;;;;5106879;28;20061;-77
2022/08/07 10:35:13;;;;;;;8.70;3.50;;;;;;;;;;5113577;28;20350;-78
2022/08/07 10:37:54;;;;;;;5.05;3.22;;;;;;;;;;5105948;28;20031;-77
2022/08/07 10:51:28;;;;;;;3.30;2.90;;;;;;;;;;5130792;27;20662;-76
2022/08/07 10:54:00;;;;;;;7.75;2.95;;;;;;;;;;5135034;28;20416;-76
2022/08/07 10:56:36;;;;;;;7.25;3.17;;;;;;;;;;5117156;28;20073;-76
2022/08/07 10:59:17;;;;;;;6.28;2.67;;;;;;;;;;5134964;28;20028;-76
2022/08/07 11:01:53;;;;;;;7.82;2.72;;;;;;;;;;5116544;28;20030;-76
2022/08/07 11:04:31;;;;;;;4.93;3.17;;;;;;;;;;5135122;28;20023;-76
2022/08/07 11:07:21;;;;;;;5.38;3.03;;;;;;;;;;5135156;28;20047;-76
2022/08/07 11:09:51;;;;;;;5.47;2.60;;;;;;;;;;5051883;28;20033;-76
2022/08/07 11:12:19;;;;;;;5.45;2.92;;;;;;;;;;5051936;28;20087;-76
2022/08/07 11:14:56;;;;;;;8.10;2.97;;;;;;;;;;5051915;28;20037;-78
2022/08/07 11:17:41;;;;;;;4.85;3.13;;;;;;;;;;5052305;28;20379;-79
2022/08/07 11:20:10;;;;;;;4.35;3.00;;;;;;;;;;5051366;28;20419;-78
2022/08/07 11:22:45;;;;;;;5.07;3.10;;;;;;;;;;5051745;28;20025;-78
2022/08/07 11:25:22;;;;;;;3.75;3.00;;;;;;;;;;5051546;28;20323;-78
2022/08/07 11:28:01;;;;;;;7.65;3.17;;;;;;;;;;5035021;28;20033;-78
2022/08/07 11:30:32;;;;;;;8.23;4.18;;;;;;;;;;5034802;28;20053;-78
2022/08/07 11:33:17;;;;;;;10.57;3.65;;;;;;;;;;5051435;28;20439;-82
2022/08/07 11:35:52;;;;;;;5.63;3.50;;;;;;;;;;5051308;28;20155;-80
2022/08/07 11:38:26;;;;;;;5.78;3.50;;;;;;;;;;5051388;28;20041;-79
2022/08/07 11:40:58;;;;;;;8.23;2.97;;;;;;;;;;5051262;28;20041;-73
2022/08/07 11:43:29;;;;;;;11.20;3.50;;;;;;;;;;5051363;28;20022;-74
2022/08/07 11:46:07;;;;;;;6.97;3.30;;;;;;;;;;5049125;28;20032;-74
2022/08/07 11:48:42;;;;;;;7.15;4.10;;;;;;;;;;5113549;28;20046;-77
2022/08/07 11:51:15;;;;;;;7.25;3.50;;;;;;;;;;5105636;28;20097;-78
2022/08/07 11:53:52;;;;;;;6.45;3.10;;;;;;;;;;5099809;28;20021;-78
2022/08/07 11:56:41;;;;;;;3.88;3.00;;;;;;;;;;5099727;28;20016;-78
2022/08/07 11:59:13;;;;;;;4.60;3.20;;;;;;;;;;5099766;28;20024;-78
2022/08/07 12:01:52;;;;;;;9.27;3.13;;;;;;;;;;5099873;28;20020;-78
2022/08/07 12:04:57;;;;;;;3.95;3.30;;;;;;;;;;5095210;28;20016;-77
2022/08/07 12:07:23;;;;;;;3.85;2.83;;;;;;;;;;5017919;28;20118;-77
2022/08/07 12:09:54;;;;;;;9.98;3.33;;;;;;;;;;5017824;28;20116;-78
2022/08/07 12:12:27;;;;;;;6.85;2.80;;;;;;;;;;5017222;28;20117;-78
2022/08/07 12:15:12;;;;;;;3.58;2.95;;;;;;;;;;5015471;28;20030;-78
2022/08/07 12:17:59;;;;;;;9.35;3.13;;;;;;;;;;5017505;28;20100;-78
2022/08/07 12:20:37;;;;;;;5.75;3.05;;;;;;;;;;5017151;28;20129;-78
2022/08/07 12:23:15;;;;;;;5.22;3.28;;;;;;;;;;5017697;28;20026;-78
2022/08/07 12:25:51;;;;;;;6.40;3.40;;;;;;;;;;5017457;28;20072;-78
2022/08/07 12:28:22;;;;;;;6.45;3.35;;;;;;;;;;5017761;28;20026;-78
2022/08/07 12:30:50;;;;;;;5.35;3.00;;;;;;;;;;5017312;28;20040;-77
2022/08/07 12:33:18;;;;;;;7.28;3.22;;;;;;;;;;5017400;28;20025;-78
2022/08/07 12:35:45;;;;;;;6.25;3.63;;;;;;;;;;5000906;28;20044;-77
2022/08/07 12:38:12;;;;;;;8.20;3.63;;;;;;;;;;5050142;28;20036;-78
2022/08/07 12:40:39;;;;;;;5.28;3.47;;;;;;;;;;5078803;28;20031;-78
2022/08/07 12:43:07;;;;;;;6.50;3.53;;;;;;;;;;5078627;28;20020;-78
2022/08/07 12:45:37;;;;;;;8.43;3.72;;;;;;;;;;5060657;28;20036;-78
2022/08/07 12:48:09;;;;;;;3.95;3.40;;;;;;;;;;5078831;28;20020;-78
2022/08/07 12:50:35;;;;;;;4.80;3.20;;;;;;;;;;5078504;28;20138;-78
2022/08/07 12:53:04;;;;;;;6.13;3.33;;;;;;;;;;5078672;28;20028;-78
2022/08/07 12:55:37;;;;;;;7.30;3.55;;;;;;;;;;5078525;28;20021;-78
2022/08/07 12:58:05;;;;;;;7.53;3.55;;;;;;;;;;5078636;28;20352;-78
2022/08/07 13:00:38;;;;;;;4.93;4.10;;;;;;;;;;5060325;28;20086;-78
2022/08/07 13:03:17;;;;;;;4.60;3.75;;;;;;;;;;5077457;28;20020;-78
2022/08/07 13:05:53;;;;;;;4.90;3.65;;;;;;;;;;5060241;28;20086;-78
2022/08/07 13:08:22;;;;;;;5.20;4.40;;;;;;;;;;5060565;28;20024;-78
2022/08/07 13:11:03;;;;;;;4.93;4.20;;;;;;;;;;5078265;28;20035;-78
2022/08/07 13:13:45;;;;;;;4.57;3.90;;;;;;;;;;5078118;28;20036;-78
2022/08/07 13:16:24;;;;;;;5.88;3.50;;;;;;;;;;5060139;28;20060;-78
2022/08/07 13:19:01;;;;;;;5.55;4.13;;;;;;;;;;5077896;28;20282;-78
2022/08/07 13:21:56;;;;;;;7.50;4.78;;;;;;;;;;5060445;28;20027;-78
2022/08/07 13:24:27;;;;;;;6.97;4.05;;;;;;;;;;5016301;28;20033;-78
2022/08/07 13:26:53;;;;;;;;;;;;;;;;;;5016858;28;20391;-77
2022/08/07 13:29:37;;;;;;;6.32;4.13;;;;;;;;;;5016333;28;19905;-78
2022/08/07 13:32:05;;;;;;;5.28;3.75;;;;;;;;;;5016560;28;20462;-77
2022/08/07 13:34:39;;;;;;;5.10;4.60;;;;;;;;;;5016220;28;20041;-78
2022/08/07 13:37:18;;;;;;;8.07;4.32;;;;;;;;;;5016169;28;20052;-76
2022/08/07 13:39:50;;;;;;;7.65;4.25;;;;;;;;;;4999573;28;20034;-77
2022/08/07 13:42:16;;;;;;;7.55;3.90;;;;;;;;;;5015814;28;20335;-77
2022/08/07 13:44:43;;;;;;;4.97;3.80;;;;;;;;;;5015795;28;20022;-78
2022/08/07 13:47:10;;;;;;;4.82;3.80;;;;;;;;;;5016040;28;20089;-77
2022/08/07 13:49:43;;;;;;;4.38;3.15;;;;;;;;;;5015729;28;20461;-77
2022/08/07 13:52:11;;;;;;;6.80;4.10;;;;;;;;;;5015928;28;20053;-78
2022/08/07 13:54:42;;;;;;;5.55;3.70;;;;;;;;;;5015833;28;20054;-78
2022/08/07 13:57:11;;;;;;;;;;;;;;;;;;4999832;28;20105;-78
2022/08/07 13:59:38;;;;;;;11.27;3.40;;;;;;;;;;5018610;28;19909;-78
2022/08/07 14:02:10;;;;;;;5.43;3.40;;;;;;;;;;5077522;28;20028;-78
2022/08/07 14:04:38;;;;;;;7.57;3.05;;;;;;;;;;5077243;28;20048;-78
2022/08/07 14:07:06;;;;;;;7.93;3.67;;;;;;;;;;5077229;28;20473;-78
2022/08/07 14:09:33;;;;;;;4.10;3.42;;;;;;;;;;5077348;28;20031;-78
2022/08/07 14:12:05;;;;;;;5.60;3.40;;;;;;;;;;5076934;28;20020;-78
2022/08/07 14:14:39;;;;;;;5.03;4.00;;;;;;;;;;5076806;28;20036;-78
2022/08/07 14:17:06;;;;;;;3.90;3.25;;;;;;;;;;5077359;28;20040;-77
2022/08/07 14:19:36;;;;;;;3.95;3.50;;;;;;;;;;5077092;28;20037;-78
2022/08/07 14:22:05;;;;;;;7.70;3.35;;;;;;;;;;5059041;28;20032;-78
2022/08/07 14:24:34;;;;;;;4.75;3.50;;;;;;;;;;5058780;28;20406;-79
2022/08/07 14:27:01;;;;;;;4.88;3.20;;;;;;;;;;5076925;28;20026;-78
2022/08/07 14:29:33;;;;;;;4.43;3.30;;;;;;;;;;5077054;28;20358;-78
2022/08/07 14:32:01;;;;;;;3.40;3.10;;;;;;;;;;5077130;28;20100;-78
2022/08/07 14:34:31;;;;;;;8.00;3.40;;;;;;;;;;5058914;28;20032;-78
2022/08/07 14:37:01;;;;;;;3.95;3.25;;;;;;;;;;5076947;28;20020;-78
2022/08/07 14:39:27;;;;;;;4.00;3.20;;;;;;;;;;5076629;28;20038;-78
2022/08/07 14:41:53;;;;;;;5.47;3.40;;;;;;;;;;5077149;28;20035;-78
2022/08/07 14:44:20;;;;;;;9.13;3.47;;;;;;;;;;5076736;28;20399;-78
2022/08/07 14:46:47;;;;;;;8.82;3.63;;;;;;;;;;5076888;28;20034;-78
2022/08/07 14:49:14;;;;;;;7.75;3.30;;;;;;;;;;5076802;28;20057;-77
2022/08/07 14:51:42;;;;;;;7.72;3.22;;;;;;;;;;5059116;28;20024;-78
2022/08/07 14:54:09;;;;;;;6.93;3.13;;;;;;;;;;5076779;28;20044;-78
2022/08/07 14:56:39;;;;;;;12.30;3.42;;;;;;;;;;5058956;28;20035;-78
2022/08/07 14:59:08;;;;;;;5.60;3.40;;;;;;;;;;5076885;28;20028;-78
2022/08/07 15:01:36;;;;;;;7.00;3.20;;;;;;;;;;5076867;28;20017;-78
2022/08/07 15:04:03;;;;;;;7.95;3.45;;;;;;;;;;5076745;28;20062;-78
2022/08/07 15:06:30;;;;;;;12.20;3.40;;;;;;;;;;5076747;28;20086;-78
2022/08/07 15:09:01;;;;;;;5.85;3.38;;;;;;;;;;5058837;28;20028;-78
2022/08/07 15:11:30;;;;;;;12.93;3.20;;;;;;;;;;5058522;28;20036;-80
2022/08/07 15:13:58;;;;;;;6.13;3.30;;;;;;;;;;5076519;28;20296;-78
2022/08/07 15:16:27;;;;;;;6.28;3.28;;;;;;;;;;5076325;28;20036;-78